sensor_id;sensor_type;location;lat;lon;timestamp;P1;durP1;ratioP1;P2;durP2;ratioP2
3261;SDS011;1643;47.746;9.000;2022-10-23T00:01:34;2.03;;;1.93;;
3261;SDS011;1643;47.746;9.000;2022-10-23T00:04:03;2.83;;;2.37;;
3261;SDS011;1643;47.746;9.000;2022-10-23T00:06:31;2.43;;;2.23;;
3261;SDS011;1643;47.746;9.000;2022-10-23T00:08:58;4.67;;;2.30;;
3261;SDS011;1643;47.746;9.000;2022-10-23T00:11:25;2.43;;;2.23;;
3261;SDS011;1643;47.746;9.000;2022-10-23T00:13:54;2.20;;;2.00;;
3261;SDS011;1643;47.746;9.000;2022-10-23T00:16:22;2.23;;;2.13;;
3261;SDS011;1643;47.746;9.000;2022-10-23T00:18:48;2.20;;;2.07;;
3261;SDS011;1643;47.746;9.000;2022-10-23T00:21:14;2.90;;;1.90;;
3261;SDS011;1643;47.746;9.000;2022-10-23T00:23:41;2.40;;;2.20;;
3261;SDS011;1643;47.746;9.000;2022-10-23T00:26:07;2.03;;;1.63;;
3261;SDS011;1643;47.746;9.000;2022-10-23T00:28:35;3.63;;;2.00;;
3261;SDS011;1643;47.746;9.000;2022-10-23T00:31:02;2.27;;;2.07;;
3261;SDS011;1643;47.746;9.000;2022-10-23T00:33:29;2.10;;;1.93;;
3261;SDS011;1643;47.746;9.000;2022-10-23T00:35:55;2.37;;;2.17;;
3261;SDS011;1643;47.746;9.000;2022-10-23T00:38:21;2.17;;;2.07;;
3261;SDS011;1643;47.746;9.000;2022-10-23T00:40:47;1.60;;;1.50;;
3261;SDS011;1643;47.746;9.000;2022-10-23T00:43:19;1.60;;;1.50;;
3261;SDS011;1643;47.746;9.000;2022-10-23T00:45:50;2.80;;;1.57;;
3261;SDS011;1643;47.746;9.000;2022-10-23T00:48:16;1.40;;;1.30;;
3261;SDS011;1643;47.746;9.000;2022-10-23T00:50:42;1.40;;;1.30;;
3261;SDS011;1643;47.746;9.000;2022-10-23T00:53:09;2.80;;;1.50;;
3261;SDS011;1643;47.746;9.000;2022-10-23T00:55:37;2.67;;;1.27;;
3261;SDS011;1643;47.746;9.000;2022-10-23T00:58:05;1.20;;;1.20;;
3261;SDS011;1643;47.746;9.000;2022-10-23T01:00:47;1.57;;;1.40;;
3261;SDS011;1643;47.746;9.000;2022-10-23T01:03:18;1.40;;;1.30;;
3261;SDS011;1643;47.746;9.000;2022-10-23T01:09:00;1.37;;;1.27;;
3261;SDS011;1643;47.746;9.000;2022-10-23T01:11:20;1.40;;;1.30;;
3261;SDS011;1643;47.746;9.000;2022-10-23T01:14:02;1.67;;;1.57;;
3261;SDS011;1643;47.746;9.000;2022-10-23T01:16:45;3.53;;;1.37;;
3261;SDS011;1643;47.746;9.000;2022-10-23T01:27:27;2.23;;;1.40;;
3261;SDS011;1643;47.746;9.000;2022-10-23T01:30:07;2.50;;;1.40;;
3261;SDS011;1643;47.746;9.000;2022-10-23T01:35:06;3.13;;;1.60;;
3261;SDS011;1643;47.746;9.000;2022-10-23T01:37:51;2.80;;;1.67;;
3261;SDS011;1643;47.746;9.000;2022-10-23T01:40:25;1.30;;;1.20;;
3261;SDS011;1643;47.746;9.000;2022-10-23T01:42:57;1.23;;;1.13;;
3261;SDS011;1643;47.746;9.000;2022-10-23T01:45:31;2.83;;;1.63;;
3261;SDS011;1643;47.746;9.000;2022-10-23T01:48:03;2.50;;;1.60;;
3261;SDS011;1643;47.746;9.000;2022-10-23T01:50:30;3.33;;;1.43;;
3261;SDS011;1643;47.746;9.000;2022-10-23T01:52:58;1.90;;;1.77;;
3261;SDS011;1643;47.746;9.000;2022-10-23T01:55:23;1.80;;;1.70;;
3261;SDS011;1643;47.746;9.000;2022-10-23T01:57:50;3.77;;;1.80;;
3261;SDS011;1643;47.746;9.000;2022-10-23T02:00:17;3.10;;;2.13;;
3261;SDS011;1643;47.746;9.000;2022-10-23T02:02:44;2.00;;;1.90;;
3261;SDS011;1643;47.746;9.000;2022-10-23T02:07:56;1.83;;;1.73;;
3261;SDS011;1643;47.746;9.000;2022-10-23T02:10:25;1.90;;;1.57;;
3261;SDS011;1643;47.746;9.000;2022-10-23T02:13:12;1.77;;;1.50;;
3261;SDS011;1643;47.746;9.000;2022-10-23T02:15:49;1.90;;;1.40;;
3261;SDS011;1643;47.746;9.000;2022-10-23T02:18:30;1.50;;;1.40;;
3261;SDS011;1643;47.746;9.000;2022-10-23T02:21:16;2.23;;;1.57;;
3261;SDS011;1643;47.746;9.000;2022-10-23T02:23:55;1.90;;;1.70;;
3261;SDS011;1643;47.746;9.000;2022-10-23T02:26:29;2.57;;;1.60;;
3261;SDS011;1643;47.746;9.000;2022-10-23T02:29:04;1.80;;;1.70;;
3261;SDS011;1643;47.746;9.000;2022-10-23T02:31:46;1.73;;;1.63;;
3261;SDS011;1643;47.746;9.000;2022-10-23T02:34:12;1.83;;;1.37;;
3261;SDS011;1643;47.746;9.000;2022-10-23T02:36:37;2.33;;;1.67;;
3261;SDS011;1643;47.746;9.000;2022-10-23T02:39:03;6.80;;;1.57;;
3261;SDS011;1643;47.746;9.000;2022-10-23T02:52:14;0.90;;;0.90;;
3261;SDS011;1643;47.746;9.000;2022-10-23T02:57:53;1.13;;;1.13;;
3261;SDS011;1643;47.746;9.000;2022-10-23T03:00:28;1.20;;;0.90;;
3261;SDS011;1643;47.746;9.000;2022-10-23T03:05:25;1.10;;;1.00;;
3261;SDS011;1643;47.746;9.000;2022-10-23T03:07:54;1.30;;;1.20;;
3261;SDS011;1643;47.746;9.000;2022-10-23T03:10:20;1.30;;;1.20;;
3261;SDS011;1643;47.746;9.000;2022-10-23T03:12:46;1.10;;;1.00;;
3261;SDS011;1643;47.746;9.000;2022-10-23T03:15:13;0.90;;;0.87;;
3261;SDS011;1643;47.746;9.000;2022-10-23T03:17:40;1.30;;;1.20;;
3261;SDS011;1643;47.746;9.000;2022-10-23T03:20:06;1.23;;;1.13;;
3261;SDS011;1643;47.746;9.000;2022-10-23T03:22:32;3.23;;;1.27;;
3261;SDS011;1643;47.746;9.000;2022-10-23T03:24:58;1.27;;;1.17;;
3261;SDS011;1643;47.746;9.000;2022-10-23T03:27:24;1.00;;;1.00;;
3261;SDS011;1643;47.746;9.000;2022-10-23T03:29:49;1.47;;;1.37;;
3261;SDS011;1643;47.746;9.000;2022-10-23T03:32:15;2.07;;;1.97;;
3261;SDS011;1643;47.746;9.000;2022-10-23T03:34:41;5.80;;;5.20;;
3261;SDS011;1643;47.746;9.000;2022-10-23T03:37:07;3.53;;;3.03;;
3261;SDS011;1643;47.746;9.000;2022-10-23T03:39:32;2.43;;;2.23;;
3261;SDS011;1643;47.746;9.000;2022-10-23T03:41:58;1.80;;;1.70;;
3261;SDS011;1643;47.746;9.000;2022-10-23T03:44:24;3.30;;;2.50;;
3261;SDS011;1643;47.746;9.000;2022-10-23T03:46:49;2.80;;;2.60;;
3261;SDS011;1643;47.746;9.000;2022-10-23T03:49:15;8.10;;;7.30;;
3261;SDS011;1643;47.746;9.000;2022-10-23T03:51:40;12.30;;;7.73;;
3261;SDS011;1643;47.746;9.000;2022-10-23T03:54:08;5.07;;;4.43;;
3261;SDS011;1643;47.746;9.000;2022-10-23T03:56:33;5.73;;;4.73;;
3261;SDS011;1643;47.746;9.000;2022-10-23T03:58:59;5.00;;;3.67;;
3261;SDS011;1643;47.746;9.000;2022-10-23T04:01:25;4.20;;;3.90;;
3261;SDS011;1643;47.746;9.000;2022-10-23T04:03:50;3.50;;;3.20;;
3261;SDS011;1643;47.746;9.000;2022-10-23T04:06:16;5.30;;;4.00;;
3261;SDS011;1643;47.746;9.000;2022-10-23T04:08:42;3.10;;;2.90;;
3261;SDS011;1643;47.746;9.000;2022-10-23T04:11:09;1.67;;;1.57;;
3261;SDS011;1643;47.746;9.000;2022-10-23T04:13:35;1.20;;;1.20;;
3261;SDS011;1643;47.746;9.000;2022-10-23T04:16:01;1.60;;;1.50;;
3261;SDS011;1643;47.746;9.000;2022-10-23T04:18:26;2.00;;;1.90;;
3261;SDS011;1643;47.746;9.000;2022-10-23T04:20:52;7.93;;;1.63;;
3261;SDS011;1643;47.746;9.000;2022-10-23T04:23:18;1.83;;;1.73;;
3261;SDS011;1643;47.746;9.000;2022-10-23T04:25:44;2.27;;;2.00;;
3261;SDS011;1643;47.746;9.000;2022-10-23T04:28:09;2.30;;;2.20;;
3261;SDS011;1643;47.746;9.000;2022-10-23T04:30:35;2.17;;;1.97;;
3261;SDS011;1643;47.746;9.000;2022-10-23T04:33:01;1.80;;;1.70;;
3261;SDS011;1643;47.746;9.000;2022-10-23T04:35:26;1.80;;;1.63;;
3261;SDS011;1643;47.746;9.000;2022-10-23T04:37:52;5.40;;;1.67;;
3261;SDS011;1643;47.746;9.000;2022-10-23T04:40:17;2.03;;;1.80;;
3261;SDS011;1643;47.746;9.000;2022-10-23T04:42:43;1.80;;;1.70;;
3261;SDS011;1643;47.746;9.000;2022-10-23T04:45:09;2.23;;;2.10;;
3261;SDS011;1643;47.746;9.000;2022-10-23T04:47:34;7.60;;;3.40;;
3261;SDS011;1643;47.746;9.000;2022-10-23T04:50:00;2.73;;;2.17;;
3261;SDS011;1643;47.746;9.000;2022-10-23T04:52:26;1.77;;;1.67;;
3261;SDS011;1643;47.746;9.000;2022-10-23T04:54:51;1.37;;;1.27;;
3261;SDS011;1643;47.746;9.000;2022-10-23T04:57:17;2.87;;;1.40;;
3261;SDS011;1643;47.746;9.000;2022-10-23T04:59:42;1.33;;;1.23;;
3261;SDS011;1643;47.746;9.000;2022-10-23T05:02:08;1.10;;;1.10;;
3261;SDS011;1643;47.746;9.000;2022-10-23T05:04:34;1.17;;;1.07;;
3261;SDS011;1643;47.746;9.000;2022-10-23T05:06:59;0.97;;;0.97;;
3261;SDS011;1643;47.746;9.000;2022-10-23T05:09:25;1.30;;;1.20;;
3261;SDS011;1643;47.746;9.000;2022-10-23T05:11:50;1.40;;;1.30;;
3261;SDS011;1643;47.746;9.000;2022-10-23T05:14:16;1.20;;;1.20;;
3261;SDS011;1643;47.746;9.000;2022-10-23T05:16:43;1.50;;;1.40;;
3261;SDS011;1643;47.746;9.000;2022-10-23T05:19:20;1.50;;;1.40;;
3261;SDS011;1643;47.746;9.000;2022-10-23T05:21:47;1.83;;;1.57;;
3261;SDS011;1643;47.746;9.000;2022-10-23T05:24:20;1.40;;;1.30;;
3261;SDS011;1643;47.746;9.000;2022-10-23T05:26:46;1.47;;;1.37;;
3261;SDS011;1643;47.746;9.000;2022-10-23T05:29:15;2.07;;;1.50;;
3261;SDS011;1643;47.746;9.000;2022-10-23T05:31:41;2.40;;;1.80;;
3261;SDS011;1643;47.746;9.000;2022-10-23T05:34:07;1.50;;;1.40;;
3261;SDS011;1643;47.746;9.000;2022-10-23T05:36:34;1.50;;;1.40;;
3261;SDS011;1643;47.746;9.000;2022-10-23T05:39:01;2.60;;;1.73;;
3261;SDS011;1643;47.746;9.000;2022-10-23T05:41:26;1.60;;;1.50;;
3261;SDS011;1643;47.746;9.000;2022-10-23T05:43:52;3.93;;;1.57;;
3261;SDS011;1643;47.746;9.000;2022-10-23T05:46:18;1.60;;;1.50;;
3261;SDS011;1643;47.746;9.000;2022-10-23T05:48:43;1.87;;;1.70;;
3261;SDS011;1643;47.746;9.000;2022-10-23T05:51:09;2.93;;;2.03;;
3261;SDS011;1643;47.746;9.000;2022-10-23T05:53:35;1.70;;;1.60;;
3261;SDS011;1643;47.746;9.000;2022-10-23T05:56:05;1.60;;;1.50;;
3261;SDS011;1643;47.746;9.000;2022-10-23T05:58:31;2.60;;;1.50;;
3261;SDS011;1643;47.746;9.000;2022-10-23T06:00:57;1.30;;;1.20;;
3261;SDS011;1643;47.746;9.000;2022-10-23T06:03:23;2.27;;;1.40;;
3261;SDS011;1643;47.746;9.000;2022-10-23T06:05:49;1.40;;;1.30;;
3261;SDS011;1643;47.746;9.000;2022-10-23T06:08:15;1.60;;;1.30;;
3261;SDS011;1643;47.746;9.000;2022-10-23T06:10:40;1.27;;;1.17;;
3261;SDS011;1643;47.746;9.000;2022-10-23T06:13:06;1.23;;;1.17;;
3261;SDS011;1643;47.746;9.000;2022-10-23T06:15:31;1.47;;;1.30;;
3261;SDS011;1643;47.746;9.000;2022-10-23T06:18:01;1.20;;;1.10;;
3261;SDS011;1643;47.746;9.000;2022-10-23T06:20:27;1.20;;;1.10;;
3261;SDS011;1643;47.746;9.000;2022-10-23T06:22:53;1.30;;;1.20;;
3261;SDS011;1643;47.746;9.000;2022-10-23T06:25:19;1.03;;;1.03;;
3261;SDS011;1643;47.746;9.000;2022-10-23T06:27:44;0.90;;;0.90;;
3261;SDS011;1643;47.746;9.000;2022-10-23T06:30:10;1.23;;;1.13;;
3261;SDS011;1643;47.746;9.000;2022-10-23T06:32:36;1.27;;;1.13;;
3261;SDS011;1643;47.746;9.000;2022-10-23T06:35:02;2.20;;;1.10;;
3261;SDS011;1643;47.746;9.000;2022-10-23T06:37:28;0.93;;;0.90;;
3261;SDS011;1643;47.746;9.000;2022-10-23T06:39:54;1.30;;;1.20;;
3261;SDS011;1643;47.746;9.000;2022-10-23T06:42:19;1.87;;;1.60;;
3261;SDS011;1643;47.746;9.000;2022-10-23T06:44:45;1.83;;;1.73;;
3261;SDS011;1643;47.746;9.000;2022-10-23T06:47:10;1.50;;;1.40;;
3261;SDS011;1643;47.746;9.000;2022-10-23T06:49:38;1.30;;;1.20;;
3261;SDS011;1643;47.746;9.000;2022-10-23T06:52:04;1.40;;;1.30;;
3261;SDS011;1643;47.746;9.000;2022-10-23T06:54:29;1.47;;;1.30;;
3261;SDS011;1643;47.746;9.000;2022-10-23T06:56:55;2.10;;;2.00;;
3261;SDS011;1643;47.746;9.000;2022-10-23T06:59:20;3.77;;;3.20;;
3261;SDS011;1643;47.746;9.000;2022-10-23T07:01:46;3.57;;;3.27;;
3261;SDS011;1643;47.746;9.000;2022-10-23T07:04:12;2.73;;;2.53;;
3261;SDS011;1643;47.746;9.000;2022-10-23T07:06:38;2.03;;;1.83;;
3261;SDS011;1643;47.746;9.000;2022-10-23T07:09:05;2.60;;;1.43;;
3261;SDS011;1643;47.746;9.000;2022-10-23T07:11:30;2.07;;;1.97;;
3261;SDS011;1643;47.746;9.000;2022-10-23T07:13:56;14.03;;;1.43;;
3261;SDS011;1643;47.746;9.000;2022-10-23T07:16:22;1.40;;;1.30;;
3261;SDS011;1643;47.746;9.000;2022-10-23T07:18:48;1.60;;;1.50;;
3261;SDS011;1643;47.746;9.000;2022-10-23T07:21:22;1.73;;;1.40;;
3261;SDS011;1643;47.746;9.000;2022-10-23T07:23:48;1.57;;;1.47;;
3261;SDS011;1643;47.746;9.000;2022-10-23T07:26:15;2.20;;;1.63;;
3261;SDS011;1643;47.746;9.000;2022-10-23T07:28:41;5.33;;;1.70;;
3261;SDS011;1643;47.746;9.000;2022-10-23T07:31:09;2.30;;;2.20;;
3261;SDS011;1643;47.746;9.000;2022-10-23T07:33:35;2.73;;;2.53;;
3261;SDS011;1643;47.746;9.000;2022-10-23T07:36:05;3.00;;;2.80;;
3261;SDS011;1643;47.746;9.000;2022-10-23T07:38:32;3.20;;;2.90;;
3261;SDS011;1643;47.746;9.000;2022-10-23T07:40:58;3.57;;;3.27;;
3261;SDS011;1643;47.746;9.000;2022-10-23T07:43:25;3.37;;;3.07;;
3261;SDS011;1643;47.746;9.000;2022-10-23T07:45:51;3.87;;;3.50;;
3261;SDS011;1643;47.746;9.000;2022-10-23T07:48:17;4.00;;;3.60;;
3261;SDS011;1643;47.746;9.000;2022-10-23T07:50:44;6.87;;;3.90;;
3261;SDS011;1643;47.746;9.000;2022-10-23T07:53:21;3.90;;;3.50;;
3261;SDS011;1643;47.746;9.000;2022-10-23T07:55:56;4.57;;;4.13;;
3261;SDS011;1643;47.746;9.000;2022-10-23T07:58:23;4.23;;;3.83;;
3261;SDS011;1643;47.746;9.000;2022-10-23T08:00:51;8.83;;;3.83;;
3261;SDS011;1643;47.746;9.000;2022-10-23T08:03:23;4.10;;;3.70;;
3261;SDS011;1643;47.746;9.000;2022-10-23T08:05:53;3.80;;;3.23;;
3261;SDS011;1643;47.746;9.000;2022-10-23T08:08:20;5.70;;;3.37;;
3261;SDS011;1643;47.746;9.000;2022-10-23T08:10:47;3.57;;;3.30;;
3261;SDS011;1643;47.746;9.000;2022-10-23T08:13:14;5.23;;;3.40;;
3261;SDS011;1643;47.746;9.000;2022-10-23T08:15:41;3.77;;;3.07;;
3261;SDS011;1643;47.746;9.000;2022-10-23T08:18:08;4.70;;;3.90;;
3261;SDS011;1643;47.746;9.000;2022-10-23T08:20:37;4.77;;;3.50;;
3261;SDS011;1643;47.746;9.000;2022-10-23T08:23:04;3.27;;;2.97;;
3261;SDS011;1643;47.746;9.000;2022-10-23T08:25:30;3.60;;;3.27;;
3261;SDS011;1643;47.746;9.000;2022-10-23T08:27:55;3.50;;;3.20;;
3261;SDS011;1643;47.746;9.000;2022-10-23T08:30:21;3.90;;;3.60;;
3261;SDS011;1643;47.746;9.000;2022-10-23T08:32:46;5.10;;;3.00;;
3261;SDS011;1643;47.746;9.000;2022-10-23T08:35:12;3.47;;;3.17;;
3261;SDS011;1643;47.746;9.000;2022-10-23T08:37:38;3.40;;;3.10;;
3261;SDS011;1643;47.746;9.000;2022-10-23T08:40:03;3.57;;;3.30;;
3261;SDS011;1643;47.746;9.000;2022-10-23T08:42:29;4.30;;;3.83;;
3261;SDS011;1643;47.746;9.000;2022-10-23T08:45:10;6.33;;;3.53;;
3261;SDS011;1643;47.746;9.000;2022-10-23T08:50:56;4.23;;;3.83;;
3261;SDS011;1643;47.746;9.000;2022-10-23T08:56:23;3.63;;;3.30;;
3261;SDS011;1643;47.746;9.000;2022-10-23T08:58:53;3.40;;;3.10;;
3261;SDS011;1643;47.746;9.000;2022-10-23T09:01:42;2.90;;;2.70;;
3261;SDS011;1643;47.746;9.000;2022-10-23T09:04:11;3.50;;;3.00;;
3261;SDS011;1643;47.746;9.000;2022-10-23T09:06:48;3.40;;;3.10;;
3261;SDS011;1643;47.746;9.000;2022-10-23T09:12:14;2.63;;;2.43;;
3261;SDS011;1643;47.746;9.000;2022-10-23T09:17:29;3.33;;;2.90;;
3261;SDS011;1643;47.746;9.000;2022-10-23T09:20:06;3.10;;;2.80;;
3261;SDS011;1643;47.746;9.000;2022-10-23T09:22:34;8.30;;;3.07;;
3261;SDS011;1643;47.746;9.000;2022-10-23T09:25:00;2.80;;;2.60;;
3261;SDS011;1643;47.746;9.000;2022-10-23T09:27:26;2.90;;;2.70;;
3261;SDS011;1643;47.746;9.000;2022-10-23T09:29:53;2.97;;;2.77;;
3261;SDS011;1643;47.746;9.000;2022-10-23T09:32:19;9.80;;;2.63;;
3261;SDS011;1643;47.746;9.000;2022-10-23T09:35:02;3.40;;;3.20;;
3261;SDS011;1643;47.746;9.000;2022-10-23T09:37:30;2.40;;;2.20;;
3261;SDS011;1643;47.746;9.000;2022-10-23T09:45:25;4.53;;;2.93;;
3261;SDS011;1643;47.746;9.000;2022-10-23T09:48:03;3.10;;;2.80;;
3261;SDS011;1643;47.746;9.000;2022-10-23T09:50:29;3.20;;;2.90;;
3261;SDS011;1643;47.746;9.000;2022-10-23T09:52:54;3.20;;;2.87;;
3261;SDS011;1643;47.746;9.000;2022-10-23T09:55:21;2.50;;;2.30;;
3261;SDS011;1643;47.746;9.000;2022-10-23T09:57:50;2.23;;;2.03;;
3261;SDS011;1643;47.746;9.000;2022-10-23T10:00:25;5.37;;;2.70;;
3261;SDS011;1643;47.746;9.000;2022-10-23T10:03:01;3.10;;;2.80;;
3261;SDS011;1643;47.746;9.000;2022-10-23T10:05:37;3.97;;;3.10;;
3261;SDS011;1643;47.746;9.000;2022-10-23T10:10:59;4.93;;;2.63;;
3261;SDS011;1643;47.746;9.000;2022-10-23T10:16:02;2.77;;;2.50;;
3261;SDS011;1643;47.746;9.000;2022-10-23T10:18:56;3.40;;;2.00;;
3261;SDS011;1643;47.746;9.000;2022-10-23T10:21:44;3.27;;;2.67;;
3261;SDS011;1643;47.746;9.000;2022-10-23T10:24:20;4.70;;;3.03;;
3261;SDS011;1643;47.746;9.000;2022-10-23T10:32:32;1.57;;;1.47;;
3261;SDS011;1643;47.746;9.000;2022-10-23T10:43:39;2.23;;;2.10;;
3261;SDS011;1643;47.746;9.000;2022-10-23T10:51:44;1.80;;;1.70;;
3261;SDS011;1643;47.746;9.000;2022-10-23T10:54:25;2.33;;;2.13;;
3261;SDS011;1643;47.746;9.000;2022-10-23T10:57:03;2.63;;;1.70;;
3261;SDS011;1643;47.746;9.000;2022-10-23T10:59:37;1.63;;;1.27;;
3261;SDS011;1643;47.746;9.000;2022-10-23T11:07:11;4.10;;;1.70;;
3261;SDS011;1643;47.746;9.000;2022-10-23T11:09:39;3.00;;;2.07;;
3261;SDS011;1643;47.746;9.000;2022-10-23T11:12:11;2.00;;;1.90;;
3261;SDS011;1643;47.746;9.000;2022-10-23T11:14:47;5.10;;;2.77;;
3261;SDS011;1643;47.746;9.000;2022-10-23T11:17:36;4.07;;;2.10;;
3261;SDS011;1643;47.746;9.000;2022-10-23T11:20:07;4.73;;;1.93;;
3261;SDS011;1643;47.746;9.000;2022-10-23T11:23:14;2.07;;;1.87;;
3261;SDS011;1643;47.746;9.000;2022-10-23T11:28:57;1.80;;;1.70;;
3261;SDS011;1643;47.746;9.000;2022-10-23T11:37:04;7.13;;;2.47;;
3261;SDS011;1643;47.746;9.000;2022-10-23T11:39:33;4.03;;;2.10;;
3261;SDS011;1643;47.746;9.000;2022-10-23T11:47:03;2.37;;;2.00;;
3261;SDS011;1643;47.746;9.000;2022-10-23T11:49:47;1.70;;;1.60;;
3261;SDS011;1643;47.746;9.000;2022-10-23T11:52:20;1.70;;;1.60;;
3261;SDS011;1643;47.746;9.000;2022-10-23T11:54:47;4.20;;;1.90;;
3261;SDS011;1643;47.746;9.000;2022-10-23T11:57:24;1.70;;;1.60;;
3261;SDS011;1643;47.746;9.000;2022-10-23T11:59:50;1.40;;;1.30;;
3261;SDS011;1643;47.746;9.000;2022-10-23T12:02:37;1.57;;;1.47;;
3261;SDS011;1643;47.746;9.000;2022-10-23T12:05:06;1.63;;;1.20;;
3261;SDS011;1643;47.746;9.000;2022-10-23T12:07:52;1.53;;;1.43;;
3261;SDS011;1643;47.746;9.000;2022-10-23T12:10:21;1.63;;;1.50;;
3261;SDS011;1643;47.746;9.000;2022-10-23T12:12:55;2.43;;;1.40;;
3261;SDS011;1643;47.746;9.000;2022-10-23T12:15:22;1.80;;;1.70;;
3261;SDS011;1643;47.746;9.000;2022-10-23T12:17:50;1.77;;;1.67;;
3261;SDS011;1643;47.746;9.000;2022-10-23T12:20:43;7.23;;;1.90;;
3261;SDS011;1643;47.746;9.000;2022-10-23T12:23:36;1.90;;;1.70;;
3261;SDS011;1643;47.746;9.000;2022-10-23T12:26:13;1.97;;;1.77;;
3261;SDS011;1643;47.746;9.000;2022-10-23T12:35:02;2.37;;;2.13;;
3261;SDS011;1643;47.746;9.000;2022-10-23T12:37:54;4.10;;;2.40;;
3261;SDS011;1643;47.746;9.000;2022-10-23T12:40:26;2.53;;;1.90;;
3261;SDS011;1643;47.746;9.000;2022-10-23T12:42:55;1.90;;;1.77;;
3261;SDS011;1643;47.746;9.000;2022-10-23T12:45:29;1.60;;;1.50;;
3261;SDS011;1643;47.746;9.000;2022-10-23T12:48:00;1.60;;;1.50;;
3261;SDS011;1643;47.746;9.000;2022-10-23T12:50:29;1.70;;;1.30;;
3261;SDS011;1643;47.746;9.000;2022-10-23T12:52:58;1.90;;;1.80;;
3261;SDS011;1643;47.746;9.000;2022-10-23T12:55:26;2.53;;;1.60;;
3261;SDS011;1643;47.746;9.000;2022-10-23T12:57:54;1.67;;;1.53;;
3261;SDS011;1643;47.746;9.000;2022-10-23T13:00:21;1.90;;;1.57;;
3261;SDS011;1643;47.746;9.000;2022-10-23T13:03:01;4.00;;;1.20;;
3261;SDS011;1643;47.746;9.000;2022-10-23T13:05:28;1.93;;;1.77;;
3261;SDS011;1643;47.746;9.000;2022-10-23T13:07:55;1.57;;;1.33;;
3261;SDS011;1643;47.746;9.000;2022-10-23T13:10:23;1.43;;;1.33;;
3261;SDS011;1643;47.746;9.000;2022-10-23T13:12:54;1.70;;;1.60;;
3261;SDS011;1643;47.746;9.000;2022-10-23T13:15:35;1.60;;;1.50;;
3261;SDS011;1643;47.746;9.000;2022-10-23T13:18:03;2.17;;;1.30;;
3261;SDS011;1643;47.746;9.000;2022-10-23T13:20:37;6.23;;;4.20;;
3261;SDS011;1643;47.746;9.000;2022-10-23T13:23:09;5.63;;;3.90;;
3261;SDS011;1643;47.746;9.000;2022-10-23T13:25:36;35.77;;;20.33;;
3261;SDS011;1643;47.746;9.000;2022-10-23T13:30:29;15.60;;;9.77;;
3261;SDS011;1643;47.746;9.000;2022-10-23T13:32:57;16.70;;;11.83;;
3261;SDS011;1643;47.746;9.000;2022-10-23T13:35:23;12.93;;;9.73;;
3261;SDS011;1643;47.746;9.000;2022-10-23T13:37:49;7.83;;;5.90;;
3261;SDS011;1643;47.746;9.000;2022-10-23T13:40:22;12.03;;;10.83;;
3261;SDS011;1643;47.746;9.000;2022-10-23T13:42:50;9.37;;;8.47;;
3261;SDS011;1643;47.746;9.000;2022-10-23T13:45:19;8.10;;;7.40;;
3261;SDS011;1643;47.746;9.000;2022-10-23T13:47:49;5.60;;;4.70;;
3261;SDS011;1643;47.746;9.000;2022-10-23T13:50:15;9.77;;;5.17;;
3261;SDS011;1643;47.746;9.000;2022-10-23T13:52:42;5.90;;;5.30;;
3261;SDS011;1643;47.746;9.000;2022-10-23T13:57:46;9.30;;;6.70;;
3261;SDS011;1643;47.746;9.000;2022-10-23T14:00:11;7.53;;;4.83;;
3261;SDS011;1643;47.746;9.000;2022-10-23T14:02:39;3.87;;;3.40;;
3261;SDS011;1643;47.746;9.000;2022-10-23T14:05:05;3.50;;;2.80;;
3261;SDS011;1643;47.746;9.000;2022-10-23T14:07:30;2.30;;;2.10;;
3261;SDS011;1643;47.746;9.000;2022-10-23T14:09:56;5.70;;;3.97;;
3261;SDS011;1643;47.746;9.000;2022-10-23T14:12:22;4.10;;;3.37;;
3261;SDS011;1643;47.746;9.000;2022-10-23T14:14:50;6.33;;;3.50;;
3261;SDS011;1643;47.746;9.000;2022-10-23T14:17:17;5.23;;;3.60;;
3261;SDS011;1643;47.746;9.000;2022-10-23T14:19:46;9.20;;;3.70;;
3261;SDS011;1643;47.746;9.000;2022-10-23T14:22:11;4.60;;;3.13;;
3261;SDS011;1643;47.746;9.000;2022-10-23T14:24:37;5.57;;;3.80;;
3261;SDS011;1643;47.746;9.000;2022-10-23T14:27:03;16.27;;;9.33;;
3261;SDS011;1643;47.746;9.000;2022-10-23T14:29:29;11.80;;;7.00;;
3261;SDS011;1643;47.746;9.000;2022-10-23T14:31:55;7.20;;;4.23;;
3261;SDS011;1643;47.746;9.000;2022-10-23T14:34:20;4.93;;;2.90;;
3261;SDS011;1643;47.746;9.000;2022-10-23T14:36:46;5.57;;;4.87;;
3261;SDS011;1643;47.746;9.000;2022-10-23T14:39:12;11.93;;;6.60;;
3261;SDS011;1643;47.746;9.000;2022-10-23T14:41:37;3.80;;;3.40;;
3261;SDS011;1643;47.746;9.000;2022-10-23T14:44:04;3.67;;;2.73;;
3261;SDS011;1643;47.746;9.000;2022-10-23T14:46:30;2.50;;;2.10;;
3261;SDS011;1643;47.746;9.000;2022-10-23T14:48:56;1.80;;;1.70;;
3261;SDS011;1643;47.746;9.000;2022-10-23T14:51:26;3.57;;;2.93;;
3261;SDS011;1643;47.746;9.000;2022-10-23T14:54:01;6.13;;;3.70;;
3261;SDS011;1643;47.746;9.000;2022-10-23T14:56:28;2.23;;;2.13;;
3261;SDS011;1643;47.746;9.000;2022-10-23T14:58:55;3.53;;;2.07;;
3261;SDS011;1643;47.746;9.000;2022-10-23T15:02:00;4.63;;;4.33;;
3261;SDS011;1643;47.746;9.000;2022-10-23T15:04:19;2.97;;;2.73;;
3261;SDS011;1643;47.746;9.000;2022-10-23T15:06:45;2.37;;;2.17;;
3261;SDS011;1643;47.746;9.000;2022-10-23T15:09:11;4.50;;;2.30;;
3261;SDS011;1643;47.746;9.000;2022-10-23T15:11:37;2.20;;;2.00;;
3261;SDS011;1643;47.746;9.000;2022-10-23T15:14:03;3.17;;;2.40;;
3261;SDS011;1643;47.746;9.000;2022-10-23T15:16:28;3.53;;;2.60;;
3261;SDS011;1643;47.746;9.000;2022-10-23T15:18:55;4.33;;;3.93;;
3261;SDS011;1643;47.746;9.000;2022-10-23T15:21:20;4.90;;;3.40;;
3261;SDS011;1643;47.746;9.000;2022-10-23T15:23:46;3.17;;;2.97;;
3261;SDS011;1643;47.746;9.000;2022-10-23T15:26:19;2.77;;;2.57;;
3261;SDS011;1643;47.746;9.000;2022-10-23T15:28:51;3.70;;;2.30;;
3261;SDS011;1643;47.746;9.000;2022-10-23T15:34:02;2.70;;;2.50;;
3261;SDS011;1643;47.746;9.000;2022-10-23T15:36:29;1.97;;;1.87;;
3261;SDS011;1643;47.746;9.000;2022-10-23T15:38:55;2.30;;;2.20;;
3261;SDS011;1643;47.746;9.000;2022-10-23T15:41:31;1.97;;;1.60;;
3261;SDS011;1643;47.746;9.000;2022-10-23T15:43:58;2.23;;;2.00;;
3261;SDS011;1643;47.746;9.000;2022-10-23T15:46:25;2.33;;;1.90;;
3261;SDS011;1643;47.746;9.000;2022-10-23T15:48:51;4.17;;;1.97;;
3261;SDS011;1643;47.746;9.000;2022-10-23T15:51:17;3.37;;;2.27;;
3261;SDS011;1643;47.746;9.000;2022-10-23T15:53:43;2.57;;;2.37;;
3261;SDS011;1643;47.746;9.000;2022-10-23T15:56:08;3.67;;;2.80;;
3261;SDS011;1643;47.746;9.000;2022-10-23T15:58:34;4.40;;;3.90;;
3261;SDS011;1643;47.746;9.000;2022-10-23T16:01:03;4.37;;;3.77;;
3261;SDS011;1643;47.746;9.000;2022-10-23T16:03:33;7.03;;;3.97;;
3261;SDS011;1643;47.746;9.000;2022-10-23T16:06:08;4.10;;;3.53;;
3261;SDS011;1643;47.746;9.000;2022-10-23T16:08:36;3.50;;;3.20;;
3261;SDS011;1643;47.746;9.000;2022-10-23T16:11:03;3.93;;;3.53;;
3261;SDS011;1643;47.746;9.000;2022-10-23T16:13:36;2.70;;;2.50;;
3261;SDS011;1643;47.746;9.000;2022-10-23T16:16:02;3.77;;;2.50;;
3261;SDS011;1643;47.746;9.000;2022-10-23T16:18:28;3.00;;;2.80;;
3261;SDS011;1643;47.746;9.000;2022-10-23T16:20:54;7.17;;;5.97;;
3261;SDS011;1643;47.746;9.000;2022-10-23T16:23:19;7.33;;;5.27;;
3261;SDS011;1643;47.746;9.000;2022-10-23T16:25:45;6.10;;;5.50;;
3261;SDS011;1643;47.746;9.000;2022-10-23T16:28:11;11.93;;;4.87;;
3261;SDS011;1643;47.746;9.000;2022-10-23T16:30:40;6.13;;;4.80;;
3261;SDS011;1643;47.746;9.000;2022-10-23T16:33:07;10.40;;;9.47;;
3261;SDS011;1643;47.746;9.000;2022-10-23T16:35:32;11.77;;;10.60;;
3261;SDS011;1643;47.746;9.000;2022-10-23T16:37:58;6.40;;;5.80;;
3261;SDS011;1643;47.746;9.000;2022-10-23T16:40:24;7.30;;;6.07;;
3261;SDS011;1643;47.746;9.000;2022-10-23T16:42:49;7.07;;;5.73;;
3261;SDS011;1643;47.746;9.000;2022-10-23T16:45:15;6.03;;;5.20;;
3261;SDS011;1643;47.746;9.000;2022-10-23T16:47:40;5.70;;;5.20;;
3261;SDS011;1643;47.746;9.000;2022-10-23T16:50:06;4.23;;;3.83;;
3261;SDS011;1643;47.746;9.000;2022-10-23T16:52:32;4.53;;;4.10;;
3261;SDS011;1643;47.746;9.000;2022-10-23T16:54:58;4.93;;;3.57;;
3261;SDS011;1643;47.746;9.000;2022-10-23T16:57:24;2.57;;;2.10;;
3261;SDS011;1643;47.746;9.000;2022-10-23T16:59:51;2.40;;;2.30;;
3261;SDS011;1643;47.746;9.000;2022-10-23T17:02:17;2.73;;;2.53;;
3261;SDS011;1643;47.746;9.000;2022-10-23T17:04:43;3.43;;;2.80;;
3261;SDS011;1643;47.746;9.000;2022-10-23T17:07:09;8.03;;;3.23;;
3261;SDS011;1643;47.746;9.000;2022-10-23T17:09:37;2.60;;;2.40;;
3261;SDS011;1643;47.746;9.000;2022-10-23T17:12:03;3.27;;;2.93;;
3261;SDS011;1643;47.746;9.000;2022-10-23T17:14:29;2.83;;;2.63;;